^^
Station Historical Data
Daily Summary for July 13, 2017 Units:  Metric    English   Both
« Previous Day
Next Day »
Daily Weekly Monthly Yearly Custom
  High: Low: Average:
Temperature: 22.2 °C 4.1 °C 9.4 °C
Dew Point: 2.8 °C -0.6 °C 1.5 °C
Humidity: 81% 25% 63%
Wind Speed: 0km/h -1609.1km/h -16.4km/h
Wind Gust: 0km/h - -
Wind- -
Pressure: 1021.9 hPa 1016.5 hPa -
Precipitation: 0 mm    
Historical Graphs
 
 
Tabular Data for July 13, 2017
Time Temperature Dew Point Pressure Wind Wind Speed Wind Gust Humidity Rainfall Rate (Hourly) solar Conditions
00:00 8.9 °C 2.7 °C 1020.5 hPa Calm     65% 0 mm 0.0 W/m2
00:05 8.8 °C 2.8 °C 1020.5 hPa Calm     66% 0 mm 0.0 W/m2
00:10 8.7 °C 2.7 °C 1020.5 hPa Calm     66% 0 mm 0.0 W/m2
00:20 8.3 °C 2.5 °C 1020.5 hPa Calm     67% 0 mm 0.0 W/m2
00:25 8.3 °C 2.5 °C 1020.5 hPa Calm     67% 0 mm 0.0 W/m2
00:31 8.2 °C 2.4 °C 1020.5 hPa Calm     67% 0 mm 0.0 W/m2
00:36 8.1 °C 2.3 °C 1020.5 hPa Calm     67% 0 mm 0.0 W/m2
00:41 8 °C 2.2 °C 1020.5 hPa Calm     67% 0 mm 0.0 W/m2
00:46 7.8 °C 2.3 °C 1020.5 hPa Calm     68% 0 mm 0.0 W/m2
00:51 7.7 °C 2.2 °C 1020.5 hPa Calm     68% 0 mm 0.0 W/m2
00:57 7.7 °C 2.4 °C 1020.5 hPa Calm     69% 0 mm 0.0 W/m2
01:02 7.6 °C 2.3 °C 1020.5 hPa Calm     69% 0 mm 0.0 W/m2
01:07 7.6 °C 2.3 °C 1020.5 hPa Calm     69% 0 mm 0.0 W/m2
01:12 7.4 °C 2.1 °C 1020.2 hPa Calm     69% 0 mm 0.0 W/m2
01:17 7.4 °C 2.1 °C 1020.2 hPa Calm     69% 0 mm 0.0 W/m2
01:22 7.3 °C 2 °C 1020.2 hPa Calm     69% 0 mm 0.0 W/m2
01:28 7.1 °C 2 °C 1020.2 hPa Calm     70% 0 mm 0.0 W/m2
01:33 6.9 °C 1.8 °C 1020.5 hPa Calm     70% 0 mm 0.0 W/m2
01:38 6.7 °C 1.8 °C 1020.2 hPa Calm     71% 0 mm 0.0 W/m2
01:43 6.7 °C 1.8 °C 1020.2 hPa Calm     71% 0 mm 0.0 W/m2
01:48 6.6 °C 1.9 °C 1020.2 hPa Calm     72% 0 mm 0.0 W/m2
01:54 6.6 °C 1.9 °C 1020.2 hPa Calm     72% 0 mm 0.0 W/m2
02:04 6.6 °C 1.9 °C 1020.2 hPa Calm     72% 0 mm 0.0 W/m2
02:14 6.7 °C 2 °C 1020.2 hPa Calm     72% 0 mm 0.0 W/m2
02:19 6.7 °C 2 °C 1020.2 hPa Calm     72% 0 mm 0.0 W/m2
02:25 6.7 °C 2 °C 1020.2 hPa Calm     72% 0 mm 0.0 W/m2
02:30 6.5 °C 1.8 °C 1020.2 hPa Calm     72% 0 mm 0.0 W/m2
02:36 6.4 °C 1.9 °C 1019.9 hPa Calm     73% 0 mm 0.0 W/m2
02:41 6.4 °C 2.1 °C 1019.9 hPa Calm     74% 0 mm 0.0 W/m2
02:46 6.4 °C 2.1 °C 1019.9 hPa Calm     74% 0 mm 0.0 W/m2
02:51 6.4 °C 2.1 °C 1019.9 hPa Calm     74% 0 mm 0.0 W/m2
02:56 6.4 °C 2.1 °C 1019.9 hPa Calm     74% 0 mm 0.0 W/m2
03:02 6.4 °C 2.1 °C 1019.9 hPa Calm     74% 0 mm 0.0 W/m2
03:07 6.3 °C 1.8 °C 1019.9 hPa Calm     73% 0 mm 0.0 W/m2
03:12 6.2 °C 1.7 °C 1019.9 hPa Calm     73% 0 mm 0.0 W/m2
03:17 5.9 °C 1.6 °C 1019.9 hPa Calm     74% 0 mm 0.0 W/m2
03:22 5.8 °C 1.5 °C 1019.9 hPa Calm     74% 0 mm 0.0 W/m2
03:32 5.7 °C 1.8 °C 1019.9 hPa Calm     76% 0 mm 0.0 W/m2
03:37 5.6 °C 1.5 °C 1019.5 hPa Calm     75% 0 mm 0.0 W/m2
03:42 5.5 °C 1.2 °C 1019.5 hPa Calm     74% 0 mm 0.0 W/m2
03:48 5.3 °C 1.2 °C 1019.5 hPa Calm     75% 0 mm 0.0 W/m2
03:53 5.2 °C 1.5 °C 1019.5 hPa Calm     77% 0 mm 0.0 W/m2
03:58 5.2 °C 1.7 °C 1019.5 hPa Calm     78% 0 mm 0.0 W/m2
04:03 5.2 °C 1.7 °C 1019.5 hPa Calm     78% 0 mm 0.0 W/m2
04:08 5.1 °C 1.6 °C 1019.5 hPa Calm     78% 0 mm 0.0 W/m2
04:19 5.2 °C 1.7 °C 1019.5 hPa Calm     78% 0 mm 0.0 W/m2
04:35 4.5 °C 1 °C 1019.5 hPa Calm     78% 0 mm 0.0 W/m2
04:40 4.5 °C 1.2 °C 1019.5 hPa Calm     79% 0 mm 0.0 W/m2
04:45 4.7 °C 1.7 °C 1019.5 hPa Calm     81% 0 mm 0.0 W/m2
04:51 5 °C 1.7 °C 1019.5 hPa Calm     79% 0 mm 0.0 W/m2
04:56 5.2 °C 1.7 °C 1019.5 hPa Calm     78% 0 mm 0.0 W/m2
05:01 5.2 °C 1.5 °C 1019.5 hPa Calm     77% 0 mm 0.0 W/m2
05:07 5.2 °C 1.7 °C 1019.5 hPa Calm     78% 0 mm 0.0 W/m2
05:12 5.2 °C 1.5 °C 1019.5 hPa Calm     77% 0 mm 0.0 W/m2
05:17 5.1 °C 1.4 °C 1019.5 hPa Calm     77% 0 mm 0.0 W/m2
05:22 5 °C 1.3 °C 1019.5 hPa Calm     77% 0 mm 0.0 W/m2
05:27 4.8 °C 1.3 °C 1019.5 hPa Calm     78% 0 mm 0.0 W/m2
05:32 4.8 °C 1.3 °C 1019.5 hPa Calm     78% 0 mm 0.0 W/m2
05:38 4.7 °C 1.2 °C 1019.9 hPa Calm     78% 0 mm 0.0 W/m2
05:43 4.6 °C 1.1 °C 1019.9 hPa Calm     78% 0 mm 0.0 W/m2
05:53 4.4 °C 1.1 °C 1019.9 hPa Calm     79% 0 mm 0.0 W/m2
06:03 4.3 °C 1.2 °C 1019.9 hPa Calm     80% 0 mm 0.0 W/m2
06:08 4.2 °C 0.9 °C 1019.9 hPa Calm     79% 0 mm 0.0 W/m2
06:13 4.1 °C 1 °C 1019.9 hPa Calm     80% 0 mm 0.0 W/m2
06:19 4.2 °C 1.1 °C 1019.9 hPa Calm     80% 0 mm 0.0 W/m2
06:26 4.2 °C 0.9 °C 1020.2 hPa Calm     79% 0 mm 0.0 W/m2
06:32 4.1 °C 1 °C 1019.9 hPa Calm     80% 0 mm 0.0 W/m2
06:40 4.1 °C 1 °C 1020.2 hPa Calm     80% 0 mm 0.0 W/m2
06:56 4.4 °C 1.4 °C 1020.2 hPa Calm     81% 0 mm 11.0 W/m2
07:06 4.6 °C 1.3 °C 1020.5 hPa Calm     79% 0 mm 21.0 W/m2
08:09 8.2 °C 2.2 °C 1021.6 hPa Calm     66% 0 mm 183.0 W/m2
09:07 10.9 °C 2.2 °C 1021.9 hPa Calm     55% 0 mm 348.0 W/m2
09:16 11.2 °C 2.2 °C 1021.9 hPa Calm     54% 0 mm 369.0 W/m2
13:51 21.4 °C 1.6 °C 1017.5 hPa Calm     27% 0 mm 478.0 W/m2
13:59 21.2 °C 1.5 °C 1017.2 hPa Calm     27% 0 mm 469.0 W/m2
14:11 21.1 °C 1.9 °C 1017.2 hPa Calm     28% 0 mm 429.0 W/m2
14:32 21.4 °C 1.6 °C 1016.8 hPa Calm     27% 0 mm 387.0 W/m2
14:56 21.8 °C 1.4 °C 1016.8 hPa Calm     26% 0 mm 336.0 W/m2
15:10 22 °C 1.6 °C 1016.8 hPa Calm     26% 0 mm 292.0 W/m2
15:18 22 °C 1.6 °C 1016.5 hPa Calm     26% 0 mm 269.0 W/m2
15:36 22.1 °C 1.1 °C 1016.5 hPa Calm     25% 0 mm 225.0 W/m2
15:45 22.2 °C 1.2 °C 1016.8 hPa Calm     25% 0 mm 193.0 W/m2
15:57 22 °C 1.1 °C 1016.8 hPa Calm     25% 0 mm 162.0 W/m2
16:07 21.8 °C 0.9 °C 1016.8 hPa Calm     25% 0 mm 139.0 W/m2
16:32 21.6 °C 1.3 °C 1016.5 hPa Calm     26% 0 mm 69.0 W/m2
16:40 21.4 °C 1.1 °C 1016.5 hPa Calm     26% 0 mm 51.0 W/m2
16:49 20.9 °C 1.2 °C 1016.5 hPa Calm     27% 0 mm 32.0 W/m2
16:56 20.7 °C 1 °C 1016.5 hPa Calm     27% 0 mm 28.0 W/m2
17:15 19.7 °C 0.7 °C 1016.5 hPa Calm     28% 0 mm 5.0 W/m2
18:13 16.1 °C 0.2 °C 1016.5 hPa Calm     34% 0 mm 0.0 W/m2
18:28 15.8 °C 0.4 °C 1016.5 hPa Calm     35% 0 mm 0.0 W/m2
18:44 15.7 °C 0.3 °C 1016.5 hPa Calm     35% 0 mm 0.0 W/m2
19:16 14.8 °C -0.1 °C 1016.8 hPa North -1609.1 km/h -1607.7 km/h 36% 0 mm 0.0 W/m2
19:36 14.1 °C 0 °C 1016.8 hPa Calm     38% 0 mm 0.0 W/m2
20:19 12.7 °C 0.1 °C 1016.8 hPa Calm     42% 0 mm 0.0 W/m2
20:35 12.3 °C -0.6 °C 1017.2 hPa Calm     41% 0 mm 0.0 W/m2
21:04 11.7 °C -0.2 °C 1017.2 hPa Calm     44% 0 mm 0.0 W/m2
21:12 11.7 °C -0.2 °C 1017.2 hPa Calm   -1607.7 km/h 44% 0 mm 0.0 W/m2
Canyon Roadhouse, Fishriver Canyon, Namibia
Compliments of Weather Underground - 2 mb